Apodaca, New Mexico
Current Conditions -  °F | °C
As of 2:15 AM on Sunday 26 Oct 2014 (Local Time) from KSKX Reporting Station
Clear Clear  
Wind Chill: 32°   Ceiling: Unl
Heat Index: 37°   Visibility: 10mi
Dew Point: 19°   Wind: 7mph
Humidity: 48%   Direction: 350°N
Pressure: 30.26"   Gusts: NA
Location:  36.1644°N, 105.863°W
Report Text: KSKX 260815Z AUTO 35006KT 10SM CLR 03/M07 A3026 RMK AO1
Loading
Personal Weather Stations






























Interactive Weather Map
Tropical Storm Tracking
New forecast layout! Learn more

10-Day Weather Forecast

Advertisements
Track Severe Weather on mobile